Etusivu
METAR-TAF:

METAR-TAF

Lentoasemat :

Bahrainin kansainvälinen lentoasema

Bahrain, Bahrain

Leveyspiiri: 26-16N, Pituuspiiri: 050-39E, korkeus merenpinnasta: 2 m

Tämänhetkinen sää

Tämä raportti tehtiin 29 minuuttia sitten, kello 20.00 UTC
Tuuli 8 kn lännestä
Lämpötila 21°C
Kosteus 73%
Ilmanpaine 1018 hPa
Näkyvyys 10 km tai enemmän
ei pilviä alle 1500 m:ssä eikä cumulonimbus-pilviä

METAR: OBBI 212000Z 28008KT CAVOK 21/16 Q1018 NOSIG

Aika: 23:29 (20:29 UTC)

Sääennuste

Tämä raportti tehtiin 3 tuntia ja 29 minuuttia sitten, kello 17.00 UTC
Ennuste voimassa 21. päivästä klo 18 UTC - 23. päivään klo 00 UTC
Tuuli 10 kn luoteesta
Näkyvyys 10 km tai enemmän
Muutamia pilviä 2500 ft:n korkeudessa
Tulossa
22. päivästä klo 14 UTC - 22. päivään klo 16 UTC
Tuuli 5 kn eri suunnista

TAF: OBBI 211700Z 2118/2300 32010KT 9999 FEW025 BECMG 2214/2216 VRB05KT

Säähavainnot ja -ennusteet yli 4000 lentoasemalta (METAR- ja TAF-raportit).

Käytössä olevat sääasemat on merkitty karttaan keltaisilla ja punaisilla pisteillä.

Aseta hiiri pisteen päälle nähdäksesi sääaseman nimen.

Klikkaa sitten nähdäksesi säähavainnot ja -ennusteet.

Kartan vaihtaminen: klikkaa mustalla rastilla varustettuja vihreitä pisteitä, niin voit zoomata sisään; viivalla varustettua vihreää pistettä, niin voit zoomata ulos tai vihreitä nuolia, niin pääset viereisille kartoille.


METAR-TAF: